Time;durP1;ratioP1;P1;durP2;ratioP2;P2;SDS_P1;SDS_P2;PMS_P1;PMS_P2;Temp;Humidity;BMP_temperature;BMP_pressure;BME280_temperature;BME280_humidity;BME280_pressure;Samples;Min_cycle;Max_cycle;Signal;HPM_P1;HPM_P2
2022/06/08 00:00:46;;;;;;;8.75;2.67;;;;;;;20.27;53.79;94274.06;4160528;28;20526;-56
2022/06/08 00:02:52;;;;;;;3.83;2.85;;;;;;;20.13;53.88;94268.13;4170439;28;20045;-56
2022/06/08 00:04:54;;;;;;;3.22;2.67;;;;;;;20.01;54.40;94264.66;4161829;28;20091;-54
2022/06/08 00:06:55;;;;;;;5.60;3.03;;;;;;;19.91;54.52;94259.88;4175868;28;20056;-55
2022/06/08 00:08:57;;;;;;;3.33;2.75;;;;;;;19.86;54.71;94267.72;4165280;28;20359;-56
2022/06/08 00:10:59;;;;;;;5.57;2.75;;;;;;;19.79;54.95;94272.34;4168092;28;20139;-58
2022/06/08 00:13:00;;;;;;;4.47;2.97;;;;;;;19.72;54.99;94260.97;4167494;28;20182;-56
2022/06/08 00:15:05;;;;;;;3.60;2.80;;;;;;;19.69;55.02;94262.22;4174625;28;20045;-55
2022/06/08 00:17:07;;;;;;;3.75;2.65;;;;;;;19.75;55.07;94257.88;4177605;28;20084;-56
2022/06/08 00:19:09;;;;;;;3.88;2.83;;;;;;;19.78;55.15;94254.75;4171695;28;20052;-58
2022/06/08 00:21:11;;;;;;;4.57;2.80;;;;;;;19.86;55.04;94256.28;4172145;28;20139;-55
2022/06/08 00:23:13;;;;;;;5.23;2.97;;;;;;;19.88;54.73;94260.34;4169665;28;20045;-54
2022/06/08 00:25:15;;;;;;;4.95;2.80;;;;;;;19.88;54.53;94260.34;4173068;28;20316;-57
2022/06/08 00:27:16;;;;;;;6.97;3.67;;;;;;;19.89;54.49;94261.16;4178081;28;20146;-57
2022/06/08 00:29:19;;;;;;;3.75;2.92;;;;;;;19.89;54.30;94264.59;4161906;28;20055;-55
2022/06/08 00:31:21;;;;;;;4.63;3.15;;;;;;;19.91;54.38;94259.06;4165597;28;20045;-57
2022/06/08 00:33:22;;;;;;;4.25;3.38;;;;;;;19.92;54.29;94264.16;4178670;28;20462;-56
2022/06/08 00:35:24;;;;;;;5.25;2.80;;;;;;;19.93;54.47;94255.13;4178359;28;20049;-54
2022/06/08 00:37:26;;;;;;;4.70;3.10;;;;;;;19.90;54.61;94258.25;4177165;28;20099;-56
2022/06/08 00:39:28;;;;;;;5.75;3.30;;;;;;;19.90;54.88;94257.47;4168625;28;20053;-54
2022/06/08 00:41:37;;;;;;;4.60;3.30;;;;;;;19.89;55.10;94261.94;4173573;28;20041;-55
2022/06/08 00:43:39;;;;;;;5.18;3.13;;;;;;;19.85;54.94;94252.81;4163627;28;20046;-55
2022/06/08 00:45:40;;;;;;;4.35;2.90;;;;;;;19.83;55.00;94253.06;4169476;28;20089;-57
2022/06/08 00:47:45;;;;;;;6.68;3.60;;;;;;;19.75;55.53;94256.03;4176469;28;20045;-56
2022/06/08 00:49:58;;;;;;;6.35;3.15;;;;;;;19.70;55.60;94258.53;4192462;28;20688;-55
2022/06/08 00:52:00;;;;;;;5.63;3.42;;;;;;;19.59;56.04;94254.78;4162184;28;20086;-55
2022/06/08 00:54:03;;;;;;;6.68;3.63;;;;;;;19.52;56.38;94248.75;4161709;28;20472;-55
2022/06/08 00:56:07;;;;;;;4.70;3.60;;;;;;;19.50;56.32;94250.00;4172831;28;20045;-57
2022/06/08 00:58:13;;;;;;;;;;;;;;;19.55;56.57;94250.97;4160403;28;20080;-56
2022/06/08 01:00:28;;;;;;;5.20;3.60;;;;;;;19.59;56.25;94253.97;4159890;28;19971;-57
2022/06/08 01:02:29;;;;;;;14.07;3.38;;;;;;;19.61;56.33;94247.38;4171439;28;20420;-56
2022/06/08 01:04:31;;;;;;;4.68;3.50;;;;;;;19.64;55.96;94251.47;4166231;28;20518;-56
2022/06/08 01:06:33;;;;;;;5.55;3.40;;;;;;;19.64;56.08;94248.81;4173200;28;20079;-54
2022/06/08 01:08:38;;;;;;;5.72;3.80;;;;;;;19.63;56.06;94253.28;4163661;28;20049;-55
2022/06/08 01:10:46;;;;;;;9.90;3.63;;;;;;;19.55;56.11;94242.16;4169358;28;20053;-58
2022/06/08 01:12:48;;;;;;;5.93;3.60;;;;;;;19.53;56.48;94242.41;4163513;28;20119;-56
2022/06/08 01:14:49;;;;;;;4.25;3.60;;;;;;;19.52;56.50;94243.44;4161467;28;20494;-57
2022/06/08 01:17:06;;;;;;;7.57;3.60;;;;;;;19.52;56.45;94238.13;4161836;28;20069;-55
2022/06/08 01:19:10;;;;;;;4.45;3.60;;;;;;;19.49;56.58;94243.91;4162095;28;20059;-57
2022/06/08 01:21:21;;;;;;;6.00;3.35;;;;;;;19.48;56.43;94230.81;4176983;28;20053;-56
2022/06/08 01:23:23;;;;;;;3.63;3.33;;;;;;;19.45;56.65;94234.75;4175827;28;20049;-55
2022/06/08 01:25:32;;;;;;;6.53;3.75;;;;;;;19.40;56.79;94237.25;4173543;28;20624;-55
2022/06/08 01:27:45;;;;;;;7.00;3.30;;;;;;;19.37;56.98;94227.09;4166841;28;20053;-56
2022/06/08 01:30:07;;;;;;;7.50;3.72;;;;;;;19.34;56.86;94230.22;4158068;28;20061;-55
2022/06/08 01:32:15;;;;;;;4.65;3.53;;;;;;;19.33;57.08;94232.03;4157098;28;20072;-55
2022/06/08 01:34:32;;;;;;;9.05;3.55;;;;;;;19.34;57.10;94233.66;4158134;28;20046;-56
2022/06/08 01:36:46;;;;;;;6.47;3.90;;;;;;;19.34;56.89;94233.66;4163979;28;20060;-56
2022/06/08 01:39:16;;;;;;;6.50;3.95;;;;;;;19.35;57.01;94234.47;4166976;28;20057;-54
2022/06/08 01:41:46;;;;;;;7.55;3.85;;;;;;;19.35;57.12;94235.28;4177335;28;20573;-56
2022/06/08 01:44:20;;;;;;;6.35;4.18;;;;;;;19.32;57.03;94237.59;4174400;28;20060;-56
2022/06/08 01:46:28;;;;;;;4.88;3.78;;;;;;;19.27;57.09;94238.22;4157995;28;20053;-54
2022/06/08 01:48:59;;;;;;;5.20;3.65;;;;;;;19.23;57.12;94237.09;4160239;28;20524;-55
2022/06/08 01:51:47;;;;;;;4.57;3.72;;;;;;;19.17;57.38;94243.28;4162644;28;20060;-55
2022/06/08 01:53:56;;;;;;;4.03;3.25;;;;;;;19.07;57.30;94243.81;4174381;28;20099;-54
2022/06/08 01:56:03;;;;;;;6.47;3.90;;;;;;;19.03;57.54;94242.63;4165546;28;20103;-54
2022/06/08 01:58:23;;;;;;;5.45;4.07;;;;;;;19.03;57.69;94245.28;4160809;28;20144;-54
2022/06/08 02:00:30;;;;;;;7.40;4.05;;;;;;;19.01;57.78;94250.00;4167681;28;20052;-56
2022/06/08 02:02:46;;;;;;;6.40;4.20;;;;;;;18.97;58.06;94248.81;4161217;28;20045;-55
2022/06/08 02:04:53;;;;;;;4.57;4.10;;;;;;;18.90;57.97;94242.78;4166246;28;20484;-53
2022/06/08 02:07:10;;;;;;;9.07;3.97;;;;;;;18.88;58.16;94239.53;4160335;28;20057;-54
2022/06/08 02:09:18;;;;;;;6.97;3.97;;;;;;;18.85;58.32;94240.00;4171957;28;20121;-56
2022/06/08 02:11:28;;;;;;;6.80;4.20;;;;;;;18.73;58.61;94229.25;4175301;28;20230;-56
2022/06/08 02:13:39;;;;;;;6.40;4.13;;;;;;;18.50;59.29;94228.06;4160164;28;20111;-57
2022/06/08 02:15:44;;;;;;;5.70;4.63;;;;;;;18.22;59.95;94233.84;4171413;28;20106;-56
2022/06/08 02:17:54;;;;;;;11.15;4.90;;;;;;;17.81;61.37;94235.16;4174983;28;20052;-56
2022/06/08 02:20:10;;;;;;;6.43;4.25;;;;;;;17.56;62.53;94227.19;4171377;28;20119;-57
2022/06/08 02:22:34;;;;;;;7.75;4.72;;;;;;;17.64;62.32;94228.72;4161494;28;20547;-55
2022/06/08 02:24:44;;;;;;;6.50;4.47;;;;;;;17.80;61.71;94228.22;4164478;28;20056;-54
2022/06/08 02:26:59;;;;;;;5.32;4.22;;;;;;;17.96;61.17;94230.38;4160881;28;20053;-55
2022/06/08 02:29:13;;;;;;;5.82;4.38;;;;;;;18.05;61.22;94230.94;4167925;28;20080;-55
2022/06/08 02:31:37;;;;;;;11.07;4.78;;;;;;;18.14;60.90;94228.81;4161754;28;20561;-54
2022/06/08 02:36:12;;;;;;;7.78;4.88;;;;;;;18.03;60.73;94219.72;4162554;28;20065;-55
2022/06/08 02:38:17;;;;;;;8.45;4.47;;;;;;;17.85;61.45;94220.47;4162525;28;20449;-55
2022/06/08 02:40:22;;;;;;;11.70;5.22;;;;;;;17.68;62.23;94222.00;4169505;28;20056;-56
2022/06/08 02:42:30;;;;;;;7.03;5.28;;;;;;;17.42;63.21;94220.31;4162581;28;20044;-56
2022/06/08 02:44:33;;;;;;;8.60;5.10;;;;;;;17.40;63.47;94215.22;4167178;28;20046;-55
2022/06/08 02:46:50;;;;;;;7.13;4.80;;;;;;;17.48;63.33;94225.56;4158114;28;20469;-54
2022/06/08 02:48:52;;;;;;;9.60;4.90;;;;;;;17.51;63.04;94227.81;4173226;28;20063;-54
2022/06/08 02:50:56;;;;;;;7.53;5.15;;;;;;;17.56;63.00;94230.63;4163177;28;20066;-57
2022/06/08 02:53:30;;;;;;;6.50;4.75;;;;;;;17.39;63.10;94234.81;4169810;28;20068;-55
2022/06/08 02:55:45;;;;;;;5.13;4.22;;;;;;;17.37;63.04;94231.56;4159760;28;20073;-53
2022/06/08 02:58:01;;;;;;;8.55;4.70;;;;;;;17.50;63.08;94238.63;4167579;28;20083;-56
2022/06/08 03:00:14;;;;;;;6.68;5.30;;;;;;;17.67;62.96;94236.28;4173794;28;20165;-55
2022/06/08 03:02:29;;;;;;;8.63;4.60;;;;;;;17.82;62.10;94244.75;4163478;28;20407;-57
2022/06/08 03:04:57;;;;;;;9.20;4.57;;;;;;;17.92;61.78;94242.44;4157600;28;20133;-54
2022/06/08 03:07:03;;;;;;;7.63;4.75;;;;;;;17.84;61.82;94245.34;4159964;28;20049;-60
2022/06/08 03:09:06;;;;;;;6.95;4.32;;;;;;;17.74;61.53;94245.78;4171788;28;20130;-59
2022/06/08 03:11:09;;;;;;;6.47;4.20;;;;;;;17.75;62.30;94254.56;4157615;28;20122;-57
2022/06/08 03:13:26;;;;;;;7.35;5.03;;;;;;;17.18;63.12;94260.56;4164837;28;20045;-56
2022/06/08 03:15:28;;;;;;;5.95;4.30;;;;;;;16.99;63.84;94266.75;4160720;28;20061;-55
2022/06/08 03:17:34;;;;;;;7.45;4.50;;;;;;;16.70;64.96;94266.19;4172750;28;20059;-56
2022/06/08 03:19:37;;;;;;;7.55;4.43;;;;;;;16.74;65.30;94264.75;4163999;28;20118;-57
2022/06/08 03:21:38;;;;;;;10.10;4.90;;;;;;;16.93;64.82;94262.31;4164791;28;20110;-55
2022/06/08 03:23:40;;;;;;;15.35;4.82;;;;;;;17.09;64.18;94253.06;4167840;28;20103;-56
2022/06/08 03:25:42;;;;;;;8.57;4.22;;;;;;;17.27;64.00;94257.66;4172897;28;20183;-55
2022/06/08 03:27:44;;;;;;;6.10;4.53;;;;;;;17.46;63.31;94259.41;4159525;28;20160;-56
2022/06/08 03:29:46;;;;;;;7.80;4.47;;;;;;;17.60;62.63;94255.66;4157588;28;20081;-56
2022/06/08 03:31:49;;;;;;;6.20;4.60;;;;;;;17.78;61.78;94256.78;4159605;28;20552;-54
2022/06/08 03:33:51;;;;;;;4.70;4.20;;;;;;;17.91;61.41;94253.25;4166546;28;20042;-53
2022/06/08 03:35:52;;;;;;;4.78;4.13;;;;;;;18.06;60.91;94258.25;4170672;28;20110;-54
2022/06/08 03:37:54;;;;;;;9.88;4.80;;;;;;;18.22;60.54;94257.72;4163314;28;20049;-55
2022/06/08 03:39:56;;;;;;;7.78;4.35;;;;;;;18.32;59.98;94262.50;4158877;28;20102;-55
2022/06/08 03:41:58;;;;;;;6.28;4.50;;;;;;;18.41;59.83;94259.38;4161029;28;20073;-55
2022/06/08 03:44:00;;;;;;;5.10;4.40;;;;;;;18.53;59.29;94254.16;4160469;28;20106;-61
2022/06/08 03:46:02;;;;;;;6.82;4.10;;;;;;;18.56;59.30;94250.25;4157898;28;20397;-57
2022/06/08 03:48:06;;;;;;;8.15;4.85;;;;;;;18.59;58.87;94253.28;4159125;28;20513;-53
2022/06/08 03:50:10;;;;;;;5.00;4.40;;;;;;;18.69;58.81;94257.25;4157694;28;20156;-54
2022/06/08 03:52:19;;;;;;;12.32;4.93;;;;;;;18.73;58.80;94253.13;4173708;28;20592;-58
2022/06/08 03:54:25;;;;;;;5.57;4.80;;;;;;;18.83;58.77;94248.16;4164169;28;20045;-54
2022/06/08 03:56:27;;;;;;;6.97;4.80;;;;;;;18.93;58.53;94255.59;4169654;28;20067;-53
2022/06/08 03:58:29;;;;;;;7.80;4.78;;;;;;;18.94;58.50;94252.72;4163485;28;20053;-55
2022/06/08 04:00:31;;;;;;;9.05;5.13;;;;;;;18.99;58.88;94246.75;4171637;28;20452;-59
2022/06/08 04:02:33;;;;;;;7.10;4.60;;;;;;;19.11;58.50;94247.63;4158231;28;20099;-58
2022/06/08 04:04:36;;;;;;;11.55;4.80;;;;;;;19.23;57.77;94255.69;4157267;28;20046;-55
2022/06/08 04:06:38;;;;;;;8.30;5.33;;;;;;;19.31;57.47;94251.88;4158852;28;20115;-56
2022/06/08 04:08:39;;;;;;;9.85;5.22;;;;;;;19.38;57.13;94252.59;4170209;28;20049;-55
2022/06/08 04:10:41;;;;;;;9.35;4.95;;;;;;;19.46;57.09;94257.59;4174544;28;20064;-57
2022/06/08 04:12:43;;;;;;;9.25;5.13;;;;;;;19.51;56.89;94252.44;4160000;28;20190;-57
2022/06/08 04:14:44;;;;;;;10.25;5.60;;;;;;;19.58;57.02;94250.50;4164036;28;20403;-58
2022/06/08 04:16:47;;;;;;;7.43;5.10;;;;;;;19.46;56.60;94246.19;4162890;28;20045;-60
2022/06/08 04:18:49;;;;;;;10.88;5.85;;;;;;;19.14;57.65;94249.84;4160341;28;20058;-57
2022/06/08 04:20:53;;;;;;;7.28;4.95;;;;;;;19.01;58.11;94247.34;4160695;28;20210;-56
2022/06/08 04:22:55;;;;;;;9.10;5.25;;;;;;;19.03;58.41;94251.38;4158410;28;20056;-56
2022/06/08 04:24:59;;;;;;;9.73;5.72;;;;;;;19.14;57.93;94244.53;4159188;28;20111;-56
2022/06/08 04:27:00;;;;;;;;;;;;;;;19.24;57.79;94238.69;4167836;28;20559;-57
2022/06/08 04:29:03;;;;;;;7.85;5.82;;;;;;;19.34;57.55;94238.19;4160349;28;19932;-57
2022/06/08 04:31:06;;;;;;;8.60;5.78;;;;;;;19.42;57.37;94228.06;4173831;28;20494;-53
2022/06/08 04:33:08;;;;;;;12.10;6.35;;;;;;;19.49;57.41;94229.78;4174678;28;20045;-53
2022/06/08 04:35:10;;;;;;;12.02;5.88;;;;;;;19.56;57.27;94225.19;4175433;28;20111;-54
2022/06/08 04:37:12;;;;;;;8.80;5.72;;;;;;;19.22;57.55;94217.66;4165820;28;20105;-55
2022/06/08 04:39:15;;;;;;;8.90;6.28;;;;;;;18.99;58.46;94236.13;4172106;28;20482;-55
2022/06/08 04:41:18;;;;;;;7.60;6.47;;;;;;;18.65;59.40;94235.69;4159066;28;20524;-53
2022/06/08 04:43:20;;;;;;;9.95;5.85;;;;;;;18.61;59.93;94231.84;4158192;28;20042;-56
2022/06/08 04:45:22;;;;;;;9.43;6.22;;;;;;;18.65;59.68;94240.16;4156121;28;20081;-54
2022/06/08 04:47:24;;;;;;;10.25;6.07;;;;;;;18.63;59.70;94235.09;4157762;28;20065;-59
2022/06/08 04:49:25;;;;;;;16.13;6.47;;;;;;;18.31;60.66;94235.19;4158948;28;20099;-53
2022/06/08 04:51:27;;;;;;;9.50;7.15;;;;;;;18.36;60.40;94237.19;4167111;28;20103;-57
2022/06/08 04:53:29;;;;;;;10.68;6.60;;;;;;;18.54;60.12;94234.56;4164660;28;20057;-54
2022/06/08 04:55:31;;;;;;;9.20;6.13;;;;;;;18.75;59.84;94235.97;4171857;28;20049;-57
2022/06/08 04:57:36;;;;;;;11.63;6.78;;;;;;;18.94;59.19;94233.34;4158261;28;20053;-52
2022/06/08 04:59:37;;;;;;;9.00;6.15;;;;;;;19.03;58.64;94237.31;4162936;28;20455;-58
2022/06/08 05:01:39;;;;;;;11.38;6.75;;;;;;;19.09;58.73;94239.09;4176730;28;20052;-56
2022/06/08 05:03:42;;;;;;;9.73;6.97;;;;;;;19.07;58.80;94246.47;4169492;28;20063;-56
2022/06/08 05:05:44;;;;;;;9.20;6.90;;;;;;;18.96;58.87;94241.91;4165559;28;20057;-55
2022/06/08 05:07:46;;;;;;;7.95;7.15;;;;;;;18.71;59.61;94241.94;4163111;28;20061;-55
2022/06/08 05:09:48;;;;;;;7.35;6.55;;;;;;;18.69;59.62;94241.34;4160798;28;20119;-56
2022/06/08 05:11:50;;;;;;;9.63;7.00;;;;;;;18.65;59.75;94241.00;4168311;28;20053;-58
2022/06/08 05:13:52;;;;;;;9.82;7.60;;;;;;;18.66;59.70;94236.47;4169021;28;20107;-58
2022/06/08 05:15:53;;;;;;;10.65;7.57;;;;;;;18.54;59.77;94239.03;4159125;28;20049;-55
2022/06/08 05:17:57;;;;;;;11.02;6.93;;;;;;;18.42;60.64;94239.75;4167184;28;20053;-55
2022/06/08 05:19:59;;;;;;;12.38;7.53;;;;;;;18.58;60.40;94235.75;4164389;28;20106;-54
2022/06/08 05:22:00;;;;;;;11.35;7.50;;;;;;;18.86;59.67;94233.63;4171771;28;20114;-55
2022/06/08 05:24:20;;;;;;;8.27;6.57;;;;;;;19.13;58.87;94237.59;4165889;28;20178;-56
2022/06/08 05:26:21;;;;;;;9.32;7.38;;;;;;;19.23;58.23;94231.78;4167284;28;20244;-55
2022/06/08 05:28:23;;;;;;;11.65;7.78;;;;;;;19.10;58.34;94240.72;4174449;28;20111;-57
2022/06/08 05:30:25;;;;;;;10.50;7.72;;;;;;;18.93;58.35;94243.16;4165334;28;20057;-55
2022/06/08 05:32:27;;;;;;;10.32;7.55;;;;;;;18.58;59.81;94248.19;4170408;28;20049;-55
2022/06/08 05:34:28;;;;;;;13.35;7.88;;;;;;;18.66;59.79;94244.44;4178090;28;20572;-54
2022/06/08 05:36:30;;;;;;;11.50;7.72;;;;;;;18.83;59.73;94251.63;4171142;28;20045;-57
2022/06/08 05:38:32;;;;;;;10.45;7.97;;;;;;;19.07;58.99;94254.41;4170217;28;20523;-54
2022/06/08 05:40:36;;;;;;;13.80;9.02;;;;;;;19.23;58.27;94255.69;4160493;28;20346;-55
2022/06/08 05:42:38;;;;;;;12.52;8.25;;;;;;;19.47;58.14;94247.78;4166804;28;20489;-57
2022/06/08 05:44:40;;;;;;;12.68;7.22;;;;;;;19.65;57.22;94259.19;4174113;28;20456;-56
2022/06/08 05:46:41;;;;;;;10.60;6.65;;;;;;;19.41;57.42;94250.31;4161531;28;20494;-56
2022/06/08 05:48:43;;;;;;;9.45;7.45;;;;;;;19.55;57.52;94250.97;4174635;28;20456;-55
2022/06/08 05:50:46;;;;;;;12.25;6.97;;;;;;;19.75;56.92;94252.56;4176667;28;20059;-55
2022/06/08 05:52:48;;;;;;;8.95;6.72;;;;;;;19.90;56.49;94252.94;4172493;28;20465;-58
2022/06/08 05:54:51;;;;;;;11.50;7.07;;;;;;;20.16;56.30;94250.91;4168664;28;20053;-55
2022/06/08 05:56:52;;;;;;;12.23;6.18;;;;;;;20.42;55.72;94253.13;4176786;28;20061;-57
2022/06/08 05:58:54;;;;;;;8.82;6.07;;;;;;;20.68;54.54;94242.28;4163160;28;20446;-59
2022/06/08 06:00:55;;;;;;;11.32;7.70;;;;;;;20.80;53.45;94246.56;4158580;28;20049;-58
2022/06/08 06:02:58;;;;;;;7.35;6.60;;;;;;;20.89;53.08;94244.34;4164739;28;20044;-57
2022/06/08 06:05:00;;;;;;;7.70;5.82;;;;;;;21.04;53.05;94246.53;4168461;28;20461;-57
2022/06/08 06:07:02;;;;;;;11.85;6.43;;;;;;;21.16;52.89;94244.63;4177379;28;20262;-56
2022/06/08 06:09:04;;;;;;;10.10;6.03;;;;;;;21.22;52.57;94241.00;4176690;28;20057;-54
2022/06/08 06:11:06;;;;;;;12.02;6.30;;;;;;;21.40;52.63;94240.06;4161977;28;20571;-58
2022/06/08 06:13:08;;;;;;;10.55;5.88;;;;;;;21.54;52.32;94240.59;4170725;28;20049;-57
2022/06/08 06:15:12;;;;;;;11.57;6.10;;;;;;;21.65;52.19;94241.59;4159160;28;20054;-57
2022/06/08 06:17:14;;;;;;;8.75;5.63;;;;;;;21.81;51.65;94240.81;4162695;28;20052;-57
2022/06/08 06:19:15;;;;;;;12.45;5.20;;;;;;;22.02;51.15;94241.16;4166369;28;20464;-58
2022/06/08 06:21:25;;;;;;;9.00;5.28;;;;;;;22.24;50.57;94236.78;4176813;28;20045;-55
2022/06/08 06:23:27;;;;;;;10.73;5.25;;;;;;;22.45;49.22;94229.88;4176700;28;20059;-58
2022/06/08 06:25:29;;;;;;;8.10;5.05;;;;;;;22.57;49.15;94231.66;4163811;28;20052;-58
2022/06/08 06:27:31;;;;;;;6.63;4.78;;;;;;;22.56;48.94;94227.34;4172986;28;20053;-57
2022/06/08 06:29:32;;;;;;;10.10;5.32;;;;;;;22.54;48.98;94221.44;4159735;28;20056;-57
2022/06/08 06:31:49;;;;;;;9.60;5.75;;;;;;;22.48;48.60;94226.72;4166940;28;20118;-54
2022/06/08 06:33:51;;;;;;;10.82;5.78;;;;;;;22.35;48.43;94221.72;4174541;28;20474;-55
2022/06/08 06:35:53;;;;;;;7.88;5.05;;;;;;;22.12;48.46;94221.88;4161732;28;20053;-56
2022/06/08 06:37:55;;;;;;;7.63;5.30;;;;;;;21.67;49.69;94221.63;4176013;28;20053;-55
2022/06/08 06:39:57;;;;;;;8.23;5.22;;;;;;;21.33;50.85;94220.72;4176482;28;20052;-55
2022/06/08 06:41:59;;;;;;;7.55;5.25;;;;;;;21.09;51.85;94227.16;4170116;28;21144;-56
2022/06/08 06:44:01;;;;;;;10.10;5.45;;;;;;;21.03;51.90;94224.38;4176079;28;20061;-55
2022/06/08 06:46:02;;;;;;;14.60;5.75;;;;;;;21.12;51.88;94216.84;4161743;28;20056;-55
2022/06/08 06:48:05;;;;;;;10.68;6.00;;;;;;;21.19;52.27;94217.53;4159127;28;20679;-57
2022/06/08 06:50:09;;;;;;;10.25;4.70;;;;;;;21.12;50.85;94210.72;4171591;28;20057;-57
2022/06/08 06:52:12;;;;;;;;;;;;;;;21.28;51.41;94210.78;4162225;28;20049;-54
2022/06/08 06:54:13;;;;;;;7.90;4.55;;;;;;;21.38;50.43;94204.00;4172638;28;19925;-55
2022/06/08 06:56:15;;;;;;;6.53;4.80;;;;;;;21.45;50.02;94204.72;4164790;28;20049;-56
2022/06/08 06:58:17;;;;;;;9.68;5.75;;;;;;;21.54;50.45;94205.16;4176139;28;20141;-57
2022/06/08 07:00:18;;;;;;;11.43;4.30;;;;;;;21.72;50.28;94206.78;4174747;28;20550;-56
2022/06/08 07:02:21;;;;;;;5.22;3.47;;;;;;;21.88;49.35;94198.81;4176268;28;20049;-58
2022/06/08 07:04:23;;;;;;;6.97;4.00;;;;;;;22.07;48.75;94203.94;4175920;28;20122;-57
2022/06/08 07:06:25;;;;;;;8.85;4.03;;;;;;;22.06;47.43;94199.63;4171138;28;20053;-56
2022/06/08 07:08:27;;;;;;;6.40;4.32;;;;;;;22.11;48.08;94194.34;4167280;28;20059;-56
2022/06/08 07:10:29;;;;;;;7.47;4.25;;;;;;;22.32;47.91;94202.72;4175930;28;20060;-58
2022/06/08 07:12:30;;;;;;;5.80;3.75;;;;;;;22.55;47.64;94201.72;4175362;28;20107;-58
2022/06/08 07:14:32;;;;;;;8.63;4.20;;;;;;;22.75;47.59;94202.00;4160664;28;20269;-56
2022/06/08 07:16:34;;;;;;;5.72;3.88;;;;;;;22.97;47.62;94204.66;4160354;28;20107;-55
2022/06/08 07:18:36;;;;;;;8.60;4.78;;;;;;;23.13;47.51;94211.06;4161555;28;20060;-55
2022/06/08 07:20:38;;;;;;;8.50;4.22;;;;;;;23.21;47.41;94207.13;4167713;28;20556;-55
2022/06/08 07:22:40;;;;;;;9.38;4.15;;;;;;;23.35;46.64;94208.34;4167677;28;20059;-55
2022/06/08 07:24:41;;;;;;;7.60;4.45;;;;;;;23.44;46.02;94206.06;4164774;28;20110;-58
2022/06/08 07:26:43;;;;;;;8.77;4.47;;;;;;;23.41;45.94;94211.91;4165105;28;20115;-60
2022/06/08 07:28:45;;;;;;;9.20;4.95;;;;;;;23.13;46.10;94213.72;4159153;28;20545;-56
2022/06/08 07:30:47;;;;;;;9.23;4.50;;;;;;;23.15;46.37;94211.63;4156994;28;20132;-56
2022/06/08 07:32:50;;;;;;;9.70;4.97;;;;;;;23.12;46.54;94209.41;4168220;28;20123;-55
2022/06/08 07:34:51;;;;;;;8.65;4.90;;;;;;;23.24;47.05;94210.09;4168037;28;20049;-52
2022/06/08 07:36:53;;;;;;;11.25;4.97;;;;;;;23.09;46.18;94218.75;4164694;28;20049;-53
2022/06/08 07:38:56;;;;;;;8.25;4.88;;;;;;;23.05;46.02;94220.28;4164471;28;20441;-56
2022/06/08 07:40:58;;;;;;;10.95;5.78;;;;;;;23.09;45.58;94212.59;4164020;28;20054;-57
2022/06/08 07:43:01;;;;;;;7.65;5.05;;;;;;;23.25;45.93;94214.41;4167754;28;20053;-56
2022/06/08 07:45:05;;;;;;;10.38;5.13;;;;;;;22.89;46.00;94218.47;4173587;28;20056;-54
2022/06/08 07:47:07;;;;;;;10.50;5.93;;;;;;;22.94;46.25;94220.41;4172368;28;20068;-55
2022/06/08 07:51:33;;;;;;;7.07;5.40;;;;;;;23.40;45.47;94223.66;4164327;28;20061;-55
2022/06/08 07:53:34;;;;;;;14.52;5.43;;;;;;;23.40;46.51;94226.31;4157706;28;20114;-57
2022/06/08 07:55:37;;;;;;;9.82;6.05;;;;;;;23.60;46.20;94223.88;4159330;28;20053;-56
2022/06/08 07:57:39;;;;;;;8.02;5.57;;;;;;;23.74;45.94;94220.78;4158691;28;20203;-56
2022/06/08 07:59:41;;;;;;;10.35;5.28;;;;;;;23.85;45.08;94215.31;4165714;28;20056;-54
2022/06/08 08:01:42;;;;;;;14.52;5.97;;;;;;;23.87;45.21;94217.75;4164381;28;20045;-57
2022/06/08 08:03:44;;;;;;;8.00;4.82;;;;;;;23.95;45.33;94209.25;4172661;28;20049;-57
2022/06/08 08:05:46;;;;;;;11.80;5.95;;;;;;;23.88;44.88;94212.13;4158206;28;20207;-53
2022/06/08 08:07:50;;;;;;;8.73;6.45;;;;;;;23.21;44.94;94220.47;4164387;28;20045;-54
2022/06/08 08:09:51;;;;;;;9.20;5.93;;;;;;;22.87;46.67;94215.25;4174282;28;20045;-56
2022/06/08 08:11:54;;;;;;;14.93;6.00;;;;;;;22.92;46.39;94215.28;4159891;28;20115;-55
2022/06/08 08:13:55;;;;;;;10.65;6.25;;;;;;;23.12;46.11;94213.97;4171334;28;20126;-57
2022/06/08 08:15:57;;;;;;;10.13;5.63;;;;;;;23.38;45.49;94207.03;4171524;28;20053;-59
2022/06/08 08:17:59;;;;;;;11.18;6.13;;;;;;;23.48;45.33;94196.47;4175150;28;20140;-60
2022/06/08 08:20:00;;;;;;;22.17;6.15;;;;;;;;;;4169821;28;20192;-55
2022/06/08 08:22:02;;;;;;;8.43;6.13;;;;;;;23.44;45.15;94188.13;4160386;28;20103;-56
2022/06/08 08:24:05;;;;;;;7.75;5.28;;;;;;;23.25;45.36;94190.38;4173395;28;20061;-61
2022/06/08 08:26:07;;;;;;;9.38;5.47;;;;;;;23.38;44.95;94194.50;4173820;28;20499;-56
2022/06/08 08:28:09;;;;;;;10.00;5.70;;;;;;;23.02;45.01;94180.75;4168964;28;20561;-55
2022/06/08 08:30:17;;;;;;;9.30;5.07;;;;;;;23.25;45.33;94182.34;4166679;28;20166;-57
2022/06/08 08:32:19;;;;;;;7.47;4.20;;;;;;;23.28;43.50;94183.72;4162364;28;20138;-56
2022/06/08 08:34:20;;;;;;;6.40;4.10;;;;;;;22.86;43.52;94186.91;4160228;28;20056;-55
2022/06/08 08:36:22;;;;;;;5.10;4.25;;;;;;;23.04;43.89;94191.19;4171919;28;20046;-55
2022/06/08 08:38:24;;;;;;;8.35;4.25;;;;;;;23.03;43.50;94186.88;4161652;28;20467;-54
2022/06/08 08:40:47;;;;;;;5.50;3.92;;;;;;;22.98;43.43;94178.78;4170501;28;20049;-56
2022/06/08 08:42:49;;;;;;;5.63;4.38;;;;;;;23.16;43.79;94172.34;4168906;28;20538;-55
2022/06/08 08:45:05;;;;;;;7.53;3.78;;;;;;;23.46;43.23;94171.84;4170576;28;20045;-57
2022/06/08 08:47:25;;;;;;;6.40;3.50;;;;;;;23.85;42.47;94163.69;4170838;28;20049;-56
2022/06/08 08:49:31;;;;;;;6.38;3.50;;;;;;;24.17;41.90;94173.56;4162096;28;20053;-56
2022/06/08 08:51:44;;;;;;;5.70;3.30;;;;;;;23.70;40.71;94170.50;4174418;28;20455;-56
2022/06/08 08:54:23;;;;;;;6.45;3.33;;;;;;;23.70;40.47;94162.47;4177869;28;20071;-60
2022/06/08 08:56:29;;;;;;;9.82;4.10;;;;;;;24.00;41.61;94171.84;4176885;28;20048;-55
2022/06/08 08:58:35;;;;;;;12.15;3.70;;;;;;;24.25;41.38;94165.88;4176910;28;20076;-57
2022/06/08 09:00:41;;;;;;;9.07;4.18;;;;;;;24.46;41.64;94166.03;4158071;28;20053;-56
2022/06/08 09:03:26;;;;;;;6.55;3.70;;;;;;;24.58;40.34;94165.84;4166919;28;20187;-54
2022/06/08 09:05:24;;;;;;;6.53;3.20;;;;;;;24.70;39.43;94158.41;4164487;28;20575;-57
2022/06/08 09:07:29;;;;;;;7.03;2.90;;;;;;;24.86;40.11;94159.28;4163321;28;20057;-56
2022/06/08 09:09:33;;;;;;;7.85;3.60;;;;;;;25.06;40.39;94155.88;4176605;28;20110;-60
2022/06/08 09:11:38;;;;;;;6.30;3.10;;;;;;;25.26;39.65;94153.28;4169274;28;20069;-59
2022/06/08 09:13:46;;;;;;;4.93;3.00;;;;;;;25.32;39.29;94152.25;4162343;28;20502;-55
2022/06/08 09:15:51;;;;;;;3.85;3.13;;;;;;;25.49;39.22;94153.88;4173153;28;20507;-57
2022/06/08 09:17:58;;;;;;;7.47;4.00;;;;;;;25.59;38.27;94145.84;4161162;28;20275;-57
2022/06/08 09:20:20;;;;;;;9.27;3.30;;;;;;;25.75;38.30;94146.69;4162291;28;20460;-56
2022/06/08 09:22:27;;;;;;;5.50;3.40;;;;;;;25.91;38.01;94147.53;4166796;28;20045;-58
2022/06/08 09:24:36;;;;;;;6.15;3.65;;;;;;;26.01;37.92;94146.72;4172600;28;20057;-57
2022/06/08 09:26:40;;;;;;;6.85;3.03;;;;;;;25.84;37.31;94142.41;4169612;28;20045;-57
2022/06/08 09:28:42;;;;;;;4.60;2.80;;;;;;;25.58;37.20;94138.09;4165989;28;20054;-54
2022/06/08 09:30:49;;;;;;;4.53;2.92;;;;;;;25.65;37.15;94144.00;4171759;28;20120;-56
2022/06/08 09:32:56;;;;;;;4.75;3.33;;;;;;;25.64;37.27;94134.31;4160982;28;20049;-59
2022/06/08 09:35:02;;;;;;;4.40;3.40;;;;;;;24.99;37.77;94140.03;4167228;28;20103;-56
2022/06/08 09:37:26;;;;;;;5.18;3.58;;;;;;;24.71;38.84;94147.41;4166705;28;20394;-53
2022/06/08 09:39:28;;;;;;;6.70;3.42;;;;;;;24.57;38.38;94145.50;4173709;28;20080;-56
2022/06/08 09:42:16;;;;;;;4.63;3.05;;;;;;;24.36;39.02;94145.34;4165946;28;20194;-58
2022/06/08 09:44:29;;;;;;;4.55;3.17;;;;;;;24.22;39.48;94133.47;4173295;28;20086;-57
2022/06/08 09:51:45;;;;;;;6.13;2.95;;;;;;;24.74;39.30;94130.03;4159638;28;20050;-55
2022/06/08 09:54:11;;;;;;;9.25;2.80;;;;;;;25.21;38.68;94121.13;4162462;28;20482;-56
2022/06/08 09:56:29;;;;;;;3.72;2.35;;;;;;;25.50;38.06;94120.63;4174206;28;20122;-54
2022/06/08 09:59:20;;;;;;;3.78;2.58;;;;;;;25.72;38.07;94123.88;4161826;28;20050;-57
2022/06/08 10:01:26;;;;;;;13.00;2.90;;;;;;;25.84;37.36;94112.09;4172546;28;20475;-56